Temp: 4.6°C   Baro: 1017.1mb
  Wind: 0.0mph   Dir: NNW (342°)
  Rain: 0.0mm (0.0mm/hr)
  Solar: 0W/m2  Hum: 83%

Historic data

Bath Spa Weather Station Historical Data
Daily Summary for January 6, 2021 Units:  Metric    English   Both
Daily Weekly Monthly Yearly Custom
  High: Low: Average:
Temperature: 12.6 °C 9.1 °C 10.8 °C
Dew Point: 12.2 °C 8.2 °C 9.5 °C
Humidity: 94% 81% 89%
Wind Speed: 19.6km/h 1.3km/h 9.5km/h
Wind Gust: 35.4km/h - -
Wind- - West
Pressure: 1029.3 hPa 1020.5 hPa -
Precipitation: 0.51 mm    
Historical Graphs
 
 
Tabular Data for January 6, 2021
Time Temperature Dew Point Pressure Wind Wind Speed Wind Gust Humidity Rainfall Rate (Hourly) solar
00:04 9.2 °C 8.2 °C 1029.3 hPa WNW 1.9 km/h 9.7 km/h 91% 0 mm 0 W/m2
00:09 9.1 °C 8.2 °C 1029.3 hPa WNW 1.6 km/h 9.7 km/h 91% 0 mm 0 W/m2
00:14 9.1 °C 8.2 °C 1029.3 hPa WNW 2.1 km/h 4.8 km/h 91% 0 mm 0 W/m2
00:19 9.1 °C 8.3 °C 1029.3 hPa WNW 1.3 km/h 4.8 km/h 91.2% 0 mm 0 W/m2
00:24 9.1 °C 8.3 °C 1029.3 hPa WNW 2.9 km/h 8 km/h 91.8% 0 mm 0 W/m2
00:29 9.1 °C 8.4 °C 1029.3 hPa WNW 2.7 km/h 6.4 km/h 92% 0 mm 0 W/m2
00:34 9.1 °C 8.4 °C 1029.3 hPa WNW 1.3 km/h 4.8 km/h 92% 0 mm 0 W/m2
00:39 9.1 °C 8.4 °C 1029 hPa WNW 2.1 km/h 4.8 km/h 92% 0 mm 0 W/m2
00:44 9.1 °C 8.4 °C 1029.3 hPa WNW 3.5 km/h 9.7 km/h 92% 0 mm 0 W/m2
00:49 9.1 °C 8.4 °C 1029.3 hPa WNW 5.1 km/h 9.7 km/h 92% 0 mm 0 W/m2
00:54 9.1 °C 8.4 °C 1029.3 hPa WNW 7.9 km/h 11.3 km/h 92% 0 mm 0 W/m2
00:59 9.2 °C 8.5 °C 1029.3 hPa West 7.1 km/h 16.1 km/h 92% 0 mm 0 W/m2
01:04 9.2 °C 8.5 °C 1029.3 hPa West 5.5 km/h 14.5 km/h 92% 0 mm 0 W/m2
01:09 9.2 °C 8.5 °C 1029.3 hPa West 4 km/h 11.3 km/h 92% 0 mm 0 W/m2
01:14 9.2 °C 8.5 °C 1029.3 hPa West 5.5 km/h 9.7 km/h 92% 0 mm 0 W/m2
01:19 9.2 °C 8.5 °C 1029.3 hPa West 6 km/h 11.3 km/h 92% 0 mm 0 W/m2
01:24 9.2 °C 8.5 °C 1029.3 hPa West 7.7 km/h 12.9 km/h 92% 0 mm 0 W/m2
01:29 9.2 °C 8.5 °C 1029 hPa West 4.5 km/h 12.9 km/h 92% 0 mm 0 W/m2
01:34 9.2 °C 8.5 °C 1029 hPa West 4.7 km/h 8 km/h 92% 0 mm 0 W/m2
01:39 9.2 °C 8.5 °C 1029 hPa West 2.6 km/h 8 km/h 92% 0 mm 0 W/m2
01:44 9.2 °C 8.5 °C 1029 hPa West 3.4 km/h 8 km/h 92% 0 mm 0 W/m2
01:49 9.2 °C 8.5 °C 1029 hPa West 3.4 km/h 9.7 km/h 92% 0 mm 0 W/m2
01:54 9.2 °C 8.4 °C 1029 hPa West 3.5 km/h 6.4 km/h 92% 0 mm 0 W/m2
01:59 9.1 °C 8.4 °C 1029 hPa West 5 km/h 9.7 km/h 92% 0 mm 0 W/m2
02:04 9.1 °C 8.4 °C 1029 hPa West 7.4 km/h 12.9 km/h 92% 0 mm 0 W/m2
02:09 9.1 °C 8.4 °C 1028.7 hPa West 5.8 km/h 11.3 km/h 92% 0 mm 0 W/m2
02:14 9.1 °C 8.4 °C 1028.7 hPa West 5.5 km/h 9.7 km/h 92% 0 mm 0 W/m2
02:18 9.1 °C 8.4 °C 1028.7 hPa West 6.4 km/h 11.3 km/h 92% 0 mm 0 W/m2
02:24 9.1 °C 8.4 °C 1028.7 hPa West 4.5 km/h 9.7 km/h 92% 0 mm 0 W/m2
02:29 9.1 °C 8.4 °C 1028.7 hPa West 6.4 km/h 9.7 km/h 92% 0 mm 0 W/m2
02:34 9.2 °C 8.4 °C 1028.7 hPa West 5.8 km/h 9.7 km/h 92% 0 mm 0 W/m2
02:39 9.2 °C 8.5 °C 1028.7 hPa West 4.5 km/h 11.3 km/h 92% 0 mm 0 W/m2
02:44 9.2 °C 8.5 °C 1028.7 hPa West 4.5 km/h 11.3 km/h 92% 0 mm 0 W/m2
02:49 9.2 °C 8.5 °C 1028.7 hPa West 4 km/h 11.3 km/h 92% 0 mm 0 W/m2
02:54 9.2 °C 8.5 °C 1028.7 hPa West 5.1 km/h 9.7 km/h 92% 0 mm 0 W/m2
02:59 9.2 °C 8.5 °C 1028.7 hPa West 3.4 km/h 9.7 km/h 92% 0 mm 0 W/m2
03:04 9.3 °C 8.6 °C 1028.7 hPa West 3.9 km/h 11.3 km/h 92% 0 mm 0 W/m2
03:09 9.3 °C 8.6 °C 1028.7 hPa West 4.3 km/h 9.7 km/h 92% 0 mm 0 W/m2
03:14 9.3 °C 8.6 °C 1028.7 hPa West 4 km/h 8 km/h 92% 0 mm 0 W/m2
03:19 9.3 °C 8.4 °C 1028.7 hPa West 2.3 km/h 6.4 km/h 91% 0 mm 0 W/m2
03:24 9.3 °C 8.4 °C 1028.7 hPa West 5.3 km/h 8 km/h 91% 0 mm 0 W/m2
03:29 9.3 °C 8.4 °C 1028.3 hPa West 4.5 km/h 14.5 km/h 91% 0 mm 0 W/m2
03:34 9.3 °C 8.4 °C 1028.3 hPa West 7.9 km/h 14.5 km/h 91% 0 mm 0 W/m2
03:39 9.3 °C 8.4 °C 1028.3 hPa West 6.4 km/h 11.3 km/h 91% 0 mm 0 W/m2
03:44 9.3 °C 8.4 °C 1028.3 hPa West 7.7 km/h 12.9 km/h 91% 0 mm 0 W/m2
03:49 9.3 °C 8.4 °C 1028.3 hPa West 3.7 km/h 9.7 km/h 91% 0 mm 0 W/m2
03:54 9.3 °C 8.4 °C 1028.3 hPa West 3.9 km/h 8 km/h 91% 0 mm 0 W/m2
03:59 9.3 °C 8.4 °C 1028.3 hPa West 6.9 km/h 11.3 km/h 91% 0 mm 0 W/m2
04:04 9.3 °C 8.4 °C 1028.3 hPa West 7.1 km/h 12.9 km/h 91% 0 mm 0 W/m2
04:09 9.3 °C 8.3 °C 1028.3 hPa West 6.8 km/h 11.3 km/h 90.2% 0 mm 0 W/m2
04:14 9.3 °C 8.2 °C 1028.3 hPa West 5 km/h 11.3 km/h 90% 0 mm 0 W/m2
04:19 9.3 °C 8.2 °C 1028.3 hPa West 6.1 km/h 14.5 km/h 90% 0 mm 0 W/m2
04:24 9.3 °C 8.2 °C 1028.3 hPa West 6.3 km/h 14.5 km/h 90% 0 mm 0 W/m2
04:29 9.3 °C 8.2 °C 1028.3 hPa West 6.4 km/h 12.9 km/h 90% 0 mm 0 W/m2
04:34 9.3 °C 8.2 °C 1028.3 hPa West 6.4 km/h 9.7 km/h 90% 0 mm 0 W/m2
04:39 9.3 °C 8.2 °C 1028.3 hPa West 4 km/h 9.7 km/h 90% 0 mm 0 W/m2
04:44 9.4 °C 8.3 °C 1028.3 hPa West 5.8 km/h 14.5 km/h 90% 0 mm 0 W/m2
04:49 9.4 °C 8.3 °C 1028.3 hPa West 7.1 km/h 16.1 km/h 90% 0 mm 0 W/m2
04:54 9.4 °C 8.3 °C 1028.3 hPa West 5.6 km/h 16.1 km/h 90% 0 mm 0 W/m2
04:59 9.4 °C 8.3 °C 1028.3 hPa West 5.6 km/h 14.5 km/h 90% 0 mm 0 W/m2
05:04 9.4 °C 8.3 °C 1028.3 hPa WSW 9.3 km/h 19.3 km/h 90% 0 mm 0 W/m2
05:09 9.4 °C 8.3 °C 1028.3 hPa WSW 10 km/h 17.7 km/h 90% 0 mm 0 W/m2
05:14 9.4 °C 8.3 °C 1028 hPa WSW 6 km/h 17.7 km/h 90% 0 mm 0 W/m2
05:19 9.3 °C 8.4 °C 1028 hPa WSW 4.8 km/h 12.9 km/h 91% 0 mm 0 W/m2
05:24 9.3 °C 8.4 °C 1028 hPa WSW 3.9 km/h 11.3 km/h 91% 0 mm 0 W/m2
05:29 9.2 °C 8.3 °C 1028 hPa WSW 5.5 km/h 9.7 km/h 91% 0 mm 0 W/m2
05:34 9.2 °C 8.3 °C 1028 hPa WSW 4.8 km/h 8 km/h 91% 0 mm 0 W/m2
05:39 9.2 °C 8.3 °C 1028 hPa WSW 6.1 km/h 11.3 km/h 91% 0 mm 0 W/m2
05:44 9.2 °C 8.3 °C 1028 hPa WSW 9.3 km/h 16.1 km/h 91% 0 mm 0 W/m2
05:49 9.2 °C 8.3 °C 1027.7 hPa WSW 7.6 km/h 14.5 km/h 91% 0 mm 0 W/m2
05:54 9.2 °C 8.3 °C 1027.7 hPa WSW 7.1 km/h 14.5 km/h 91% 0 mm 0 W/m2
05:59 9.3 °C 8.4 °C 1027.7 hPa West 15.1 km/h 22.5 km/h 91% 0 mm 0 W/m2
06:04 9.3 °C 8.4 °C 1027.7 hPa West 7.6 km/h 17.7 km/h 91% 0 mm 0 W/m2
06:09 9.3 °C 8.4 °C 1027.7 hPa West 7.1 km/h 12.9 km/h 91% 0 mm 0 W/m2
06:14 9.3 °C 8.4 °C 1027.7 hPa West 9.7 km/h 20.9 km/h 91% 0 mm 0 W/m2
06:19 9.3 °C 8.4 °C 1027.7 hPa WSW 8 km/h 20.9 km/h 91% 0 mm 0 W/m2
06:24 9.3 °C 8.4 °C 1027.7 hPa WSW 7.1 km/h 14.5 km/h 91% 0 mm 0 W/m2
06:29 9.3 °C 8.4 °C 1027.7 hPa West 7.2 km/h 14.5 km/h 91% 0 mm 0 W/m2
06:34 9.3 °C 8.4 °C 1027.7 hPa West 9 km/h 14.5 km/h 91% 0 mm 0 W/m2
06:38 9.3 °C 8.4 °C 1027.7 hPa West 8.9 km/h 17.7 km/h 91% 0 mm 0 W/m2
06:44 9.3 °C 8.4 °C 1027.7 hPa WSW 7.6 km/h 17.7 km/h 91% 0 mm 0 W/m2
06:49 9.3 °C 8.3 °C 1027.7 hPa WSW 9.7 km/h 17.7 km/h 91% 0 mm 0 W/m2
06:54 9.3 °C 8.3 °C 1027.7 hPa WSW 11.6 km/h 17.7 km/h 91% 0 mm 0 W/m2
06:59 9.3 °C 8.4 °C 1027.7 hPa SW 6.6 km/h 16.1 km/h 91% 0 mm 0 W/m2
07:04 9.3 °C 8.4 °C 1027.7 hPa SW 6.6 km/h 12.9 km/h 91% 0 mm 0 W/m2
07:09 9.2 °C 8.3 °C 1027.7 hPa SW 7.7 km/h 20.9 km/h 91% 0 mm 0 W/m2
07:14 9.2 °C 8.3 °C 1027.7 hPa SW 9.3 km/h 17.7 km/h 91% 0 mm 0 W/m2
07:19 9.3 °C 8.4 °C 1027.7 hPa SW 10 km/h 17.7 km/h 91% 0 mm 0 W/m2
07:24 9.4 °C 8.5 °C 1027.7 hPa WSW 12.6 km/h 22.5 km/h 91% 0 mm 0 W/m2
07:29 9.4 °C 8.5 °C 1027.7 hPa WSW 12.2 km/h 22.5 km/h 91% 0 mm 5 W/m2
07:34 9.4 °C 8.5 °C 1027.7 hPa SW 14.5 km/h 22.5 km/h 91% 0 mm 9 W/m2
07:39 9.4 °C 8.3 °C 1027.7 hPa SW 12.2 km/h 19.3 km/h 90% 0 mm 11 W/m2
07:44 9.4 °C 8.4 °C 1027.7 hPa SW 11.9 km/h 22.5 km/h 90.6% 0 mm 14 W/m2
07:49 9.4 °C 8.5 °C 1027.7 hPa SW 8.4 km/h 20.9 km/h 91% 0 mm 14 W/m2
07:54 9.4 °C 8.5 °C 1027.7 hPa SW 9.8 km/h 19.3 km/h 91% 0 mm 18 W/m2
07:59 9.4 °C 8.5 °C 1027.7 hPa WSW 9.3 km/h 19.3 km/h 91% 0 mm 21 W/m2
08:04 9.4 °C 8.5 °C 1027.7 hPa WSW 8.4 km/h 16.1 km/h 90.8% 0 mm 28 W/m2
08:09 9.5 °C 8.4 °C 1027.7 hPa WSW 9.3 km/h 17.7 km/h 90% 0 mm 28 W/m2
08:13 9.6 °C 8.4 °C 1027.7 hPa WSW 11.9 km/h 20.9 km/h 90% 0 mm 25 W/m2
08:19 9.6 °C 8.5 °C 1027.7 hPa West 10 km/h 16.1 km/h 90% 0 mm 35 W/m2
08:24 9.6 °C 8.6 °C 1027.7 hPa West 9 km/h 24.1 km/h 90.6% 0 mm 47 W/m2
08:29 9.6 °C 8.5 °C 1027.7 hPa SW 9.8 km/h 24.1 km/h 90% 0 mm 60 W/m2
08:34 9.7 °C 8.6 °C 1027.7 hPa WSW 7.9 km/h 17.7 km/h 90% 0 mm 56 W/m2
08:39 9.7 °C 8.6 °C 1027.7 hPa WSW 10.1 km/h 16.1 km/h 90% 0 mm 62 W/m2
08:44 9.7 °C 8.6 °C 1027.7 hPa West 13.4 km/h 17.7 km/h 90% 0 mm 70 W/m2
08:49 9.7 °C 8.7 °C 1027.7 hPa WSW 6.9 km/h 17.7 km/h 90% 0 mm 69 W/m2
08:54 9.8 °C 8.7 °C 1027.7 hPa WSW 11.3 km/h 19.3 km/h 90% 0 mm 62 W/m2
08:59 9.8 °C 8.7 °C 1027.7 hPa WSW 11.6 km/h 17.7 km/h 90% 0 mm 65 W/m2
09:04 9.9 °C 8.8 °C 1027.7 hPa WSW 8.4 km/h 17.7 km/h 90% 0 mm 53 W/m2
09:09 9.9 °C 8.8 °C 1027.7 hPa WSW 8.4 km/h 17.7 km/h 90% 0 mm 72 W/m2
09:14 9.9 °C 8.8 °C 1027.7 hPa WSW 11.6 km/h 17.7 km/h 90% 0 mm 67 W/m2
09:19 9.9 °C 8.8 °C 1027.7 hPa WSW 10.3 km/h 17.7 km/h 90% 0 mm 39 W/m2
09:24 10 °C 8.9 °C 1027.7 hPa WSW 8.7 km/h 17.7 km/h 90% 0 mm 40 W/m2
09:29 10.1 °C 8.9 °C 1027.7 hPa WSW 9.3 km/h 19.3 km/h 90% 0 mm 69 W/m2
09:34 9.9 °C 8.8 °C 1027.7 hPa WSW 9 km/h 19.3 km/h 90% 0 mm 95 W/m2
09:39 9.9 °C 8.8 °C 1027.7 hPa WSW 8.7 km/h 16.1 km/h 90% 0 mm 120 W/m2
09:44 10.1 °C 9 °C 1027.3 hPa WSW 9 km/h 19.3 km/h 90% 0 mm 160 W/m2
09:49 10.2 °C 9.2 °C 1027.3 hPa WSW 6.9 km/h 19.3 km/h 90% 0 mm 272 W/m2
09:54 10.4 °C 9.3 °C 1027.7 hPa WSW 14.2 km/h 25.7 km/h 89.6% 0 mm 279 W/m2
09:59 10.6 °C 9.4 °C 1027.3 hPa WSW 10.3 km/h 25.7 km/h 88.8% 0 mm 304 W/m2
10:04 10.7 °C 9.2 °C 1027.3 hPa WSW 14.8 km/h 25.7 km/h 88% 0 mm 197 W/m2
10:09 10.7 °C 9.3 °C 1027.3 hPa WSW 12.6 km/h 24.1 km/h 88% 0 mm 246 W/m2
10:14 10.8 °C 9.4 °C 1027.3 hPa WSW 10 km/h 19.3 km/h 88% 0 mm 230 W/m2
10:19 10.9 °C 9.4 °C 1027.3 hPa WSW 10 km/h 20.9 km/h 87.2% 0 mm 225 W/m2
10:24 11.1 °C 9.5 °C 1027.3 hPa WSW 12.1 km/h 22.5 km/h 87% 0 mm 186 W/m2
10:29 11.1 °C 9.5 °C 1027.3 hPa SW 11.9 km/h 25.7 km/h 87% 0 mm 105 W/m2
10:34 11.1 °C 9.5 °C 1027.3 hPa WSW 9.8 km/h 25.7 km/h 87% 0 mm 153 W/m2
10:39 11.1 °C 9.5 °C 1027 hPa WSW 11.6 km/h 25.7 km/h 87% 0 mm 227 W/m2
10:44 11.1 °C 9.5 °C 1027 hPa SW 9.8 km/h 20.9 km/h 87% 0 mm 153 W/m2
10:49 11.1 °C 9.5 °C 1026.6 hPa WSW 14.8 km/h 22.5 km/h 87% 0 mm 137 W/m2
10:54 11.1 °C 9.4 °C 1026.6 hPa WSW 13.5 km/h 24.1 km/h 87% 0 mm 111 W/m2
10:59 11 °C 9.4 °C 1026.6 hPa WSW 9.7 km/h 24.1 km/h 87% 0 mm 142 W/m2
11:04 11.1 °C 9.5 °C 1026.6 hPa WSW 9.5 km/h 20.9 km/h 87% 0 mm 160 W/m2
11:09 11.1 °C 9.5 °C 1026.6 hPa WSW 16.3 km/h 20.9 km/h 87% 0 mm 162 W/m2
11:14 11.1 °C 9.5 °C 1026.3 hPa West 10.3 km/h 25.7 km/h 87% 0 mm 144 W/m2
11:19 11.2 °C 9.6 °C 1026.3 hPa WSW 12.9 km/h 24.1 km/h 87% 0 mm 149 W/m2
11:24 11.2 °C 9.6 °C 1026 hPa WSW 11.6 km/h 20.9 km/h 87% 0 mm 199 W/m2
11:29 11.3 °C 9.7 °C 1026.3 hPa WSW 15.4 km/h 25.7 km/h 87% 0 mm 204 W/m2
11:34 11.4 °C 9.7 °C 1026 hPa WSW 13.8 km/h 22.5 km/h 86.4% 0 mm 209 W/m2
11:39 11.4 °C 9.7 °C 1026 hPa SW 16.1 km/h 24.1 km/h 86% 0 mm 279 W/m2
11:44 11.6 °C 9.8 °C 1026 hPa WSW 9.7 km/h 25.7 km/h 85.5% 0 mm 179 W/m2
11:49 11.6 °C 9.7 °C 1026 hPa WSW 13 km/h 24.1 km/h 85% 0 mm 163 W/m2
11:54 11.6 °C 9.7 °C 1026 hPa SW 13.2 km/h 25.7 km/h 85% 0 mm 178 W/m2
11:59 11.7 °C 9.7 °C 1026 hPa West 19.6 km/h 27.4 km/h 85% 0 mm 142 W/m2
12:04 11.6 °C 9.7 °C 1025.6 hPa WSW 15.3 km/h 24.1 km/h 85% 0 mm 121 W/m2
12:09 11.7 °C 9.8 °C 1025.6 hPa WSW 14.5 km/h 25.7 km/h 85% 0 mm 104 W/m2
12:14 11.7 °C 9.7 °C 1025.6 hPa WSW 17.7 km/h 32.2 km/h 85% 0 mm 144 W/m2
12:19 11.7 °C 9.8 °C 1025.6 hPa WSW 14.6 km/h 25.7 km/h 85% 0 mm 144 W/m2
12:24 11.7 °C 9.8 °C 1025.6 hPa WSW 12.1 km/h 25.7 km/h 85% 0 mm 149 W/m2
12:29 11.7 °C 9.8 °C 1025.6 hPa WSW 13.8 km/h 22.5 km/h 85% 0 mm 146 W/m2
12:34 11.8 °C 9.8 °C 1025.3 hPa WSW 8.4 km/h 24.1 km/h 85% 0 mm 214 W/m2
12:39 11.8 °C 9.9 °C 1025.3 hPa WSW 14.8 km/h 27.4 km/h 85% 0 mm 185 W/m2
12:44 11.9 °C 9.9 °C 1025.3 hPa West 11.9 km/h 27.4 km/h 85% 0 mm 181 W/m2
12:49 11.9 °C 9.9 °C 1025.3 hPa WSW 10.8 km/h 22.5 km/h 84.5% 0 mm 165 W/m2
12:54 11.9 °C 9.8 °C 1025.3 hPa West 14.2 km/h 22.5 km/h 84% 0 mm 153 W/m2
12:59 11.9 °C 9.8 °C 1024.9 hPa WSW 11.9 km/h 27.4 km/h 84% 0 mm 181 W/m2
13:04 12 °C 9.9 °C 1024.9 hPa WSW 14.2 km/h 30.6 km/h 84% 0 mm 445 W/m2
13:09 12.2 °C 10.1 °C 1024.6 hPa WSW 14.2 km/h 24.1 km/h 84% 0 mm 445 W/m2
13:14 12.2 °C 10.1 °C 1024.6 hPa WSW 18.5 km/h 29 km/h 83.8% 0 mm 195 W/m2
13:19 12.2 °C 9.8 °C 1024.6 hPa WSW 10 km/h 25.7 km/h 83% 0 mm 171 W/m2
13:24 12.2 °C 10 °C 1024.6 hPa WSW 13.8 km/h 22.5 km/h 83.6% 0 mm 163 W/m2
13:29 12.2 °C 9.9 °C 1024.6 hPa WSW 16.4 km/h 29 km/h 83% 0 mm 480 W/m2
13:34 12.3 °C 10.1 °C 1024.6 hPa WSW 17.4 km/h 30.6 km/h 83.2% 0 mm 480 W/m2
13:39 12.6 °C 10.2 °C 1024.6 hPa West 17.4 km/h 27.4 km/h 82.6% 0 mm 174 W/m2
13:44 12.6 °C 10.1 °C 1024.6 hPa West 14.3 km/h 24.1 km/h 82% 0 mm 160 W/m2
13:49 12.6 °C 9.9 °C 1024.6 hPa West 13.2 km/h 33.8 km/h 81.2% 0 mm 111 W/m2
13:54 12.6 °C 9.9 °C 1024.6 hPa WSW 11.6 km/h 33.8 km/h 81% 0 mm 134 W/m2
13:59 12.6 °C 9.9 °C 1024.6 hPa WNW 11.4 km/h 27.4 km/h 81% 0 mm 104 W/m2
14:04 12.4 °C 9.8 °C 1024.9 hPa WNW 18.5 km/h 25.7 km/h 81% 0 mm 60 W/m2
14:09 12.4 °C 9.7 °C 1024.6 hPa West 11.1 km/h 24.1 km/h 81% 0 mm 146 W/m2
14:14 12.2 °C 9.7 °C 1024.6 hPa WSW 13.5 km/h 29 km/h 82.2% 0 mm 125 W/m2
14:19 12.1 °C 9.8 °C 1024.3 hPa West 16.6 km/h 27.4 km/h 83% 0 mm 127 W/m2
14:24 12.1 °C 9.8 °C 1024.3 hPa West 17.1 km/h 32.2 km/h 83% 0 mm 121 W/m2
14:29 12.1 °C 9.8 °C 1024.3 hPa West 15.3 km/h 35.4 km/h 83% 0 mm 176 W/m2
14:34 12.2 °C 9.9 °C 1024.3 hPa West 12.9 km/h 25.7 km/h 83.2% 0 mm 199 W/m2
14:39 12.2 °C 9.9 °C 1024.3 hPa West 19.6 km/h 30.6 km/h 83% 0 mm 104 W/m2
14:44 12.2 °C 9.9 °C 1024.3 hPa WSW 15.3 km/h 22.5 km/h 83% 0 mm 76 W/m2
14:49 12.2 °C 9.7 °C 1024.3 hPa West 15.1 km/h 32.2 km/h 82% 0 mm 56 W/m2
14:54 12.1 °C 9.6 °C 1023.9 hPa West 13.2 km/h 24.1 km/h 82% 0 mm 51 W/m2
14:59 12.1 °C 9.7 °C 1023.9 hPa West 10.6 km/h 25.7 km/h 82.6% 0 mm 32 W/m2
15:04 12 °C 9.7 °C 1023.9 hPa West 13.5 km/h 25.7 km/h 82.8% 0 mm 44 W/m2
15:09 11.8 °C 9.7 °C 1023.9 hPa West 14.5 km/h 27.4 km/h 83.4% 0 mm 62 W/m2
15:14 11.8 °C 9.7 °C 1023.9 hPa West 16.3 km/h 25.7 km/h 84% 0 mm 174 W/m2
15:19 11.9 °C 9.8 °C 1023.9 hPa SW 13.5 km/h 25.7 km/h 84% 0 mm 162 W/m2
15:24 11.9 °C 9.8 °C 1023.9 hPa WSW 11.7 km/h 22.5 km/h 84% 0 mm 151 W/m2
15:29 12 °C 9.9 °C 1023.9 hPa WSW 10 km/h 29 km/h 84% 0 mm 132 W/m2
15:34 12.1 °C 10 °C 1023.6 hPa West 9.7 km/h 16.1 km/h 84% 0 mm 102 W/m2
15:39 12.1 °C 9.9 °C 1023.6 hPa West 10.6 km/h 22.5 km/h 84% 0 mm 62 W/m2
15:44 12 °C 9.8 °C 1023.6 hPa WNW 13.2 km/h 22.5 km/h 83.2% 0 mm 70 W/m2
15:48 12.1 °C 9.8 °C 1023.6 hPa West 9.7 km/h 20.9 km/h 83% 0 mm 44 W/m2
15:54 12.1 °C 9.8 °C 1023.2 hPa WSW 9 km/h 20.9 km/h 83% 0 mm 28 W/m2
15:59 12.1 °C 9.7 °C 1023.2 hPa WSW 11.3 km/h 20.9 km/h 82.2% 0 mm 26 W/m2
16:04 12.1 °C 9.6 °C 1023.2 hPa WSW 11.9 km/h 19.3 km/h 82% 0 mm 14 W/m2
16:09 12 °C 9.5 °C 1023.2 hPa WSW 10 km/h 24.1 km/h 82% 0 mm 7 W/m2
16:14 11.9 °C 9.4 °C 1023.2 hPa WSW 11.3 km/h 27.4 km/h 82% 0 mm 5 W/m2
16:19 11.9 °C 9.4 °C 1023.2 hPa WSW 11.6 km/h 20.9 km/h 82% 0 mm 0 W/m2
16:24 11.9 °C 9.5 °C 1023.2 hPa WSW 6.3 km/h 17.7 km/h 82.6% 0 mm 0 W/m2
16:29 11.8 °C 9.5 °C 1023.2 hPa WSW 9 km/h 14.5 km/h 83% 0 mm 0 W/m2
16:34 11.8 °C 9.6 °C 1023.2 hPa WSW 7.4 km/h 16.1 km/h 83% 0 mm 0 W/m2
16:39 11.8 °C 9.6 °C 1023.2 hPa WSW 12.6 km/h 22.5 km/h 83% 0 mm 0 W/m2
16:44 11.8 °C 9.6 °C 1023.2 hPa WSW 9.2 km/h 22.5 km/h 83.4% 0 mm 0 W/m2
16:49 11.8 °C 9.7 °C 1023.2 hPa WSW 10 km/h 22.5 km/h 84% 0 mm 0 W/m2
16:54 11.8 °C 9.7 °C 1023.2 hPa West 12.6 km/h 27.4 km/h 84% 0 mm 0 W/m2
16:59 11.7 °C 9.6 °C 1022.9 hPa WSW 9.3 km/h 24.1 km/h 84% 0 mm 0 W/m2
17:04 11.6 °C 9.7 °C 1022.9 hPa WSW 6.3 km/h 16.1 km/h 85% 0 mm 0 W/m2
17:09 11.6 °C 9.7 °C 1022.9 hPa WSW 7.2 km/h 14.5 km/h 85% 0 mm 0 W/m2
17:14 11.4 °C 9.5 °C 1022.9 hPa WSW 5.6 km/h 11.3 km/h 85% 0 mm 0 W/m2
17:19 11.4 °C 9.6 °C 1022.9 hPa WSW 7.6 km/h 12.9 km/h 85.8% 0 mm 0 W/m2
17:24 11.4 °C 9.6 °C 1022.6 hPa WSW 8.2 km/h 14.5 km/h 86% 0 mm 0 W/m2
17:29 11.4 °C 9.6 °C 1022.6 hPa WSW 8 km/h 14.5 km/h 86% 0 mm 0 W/m2
17:34 11.3 °C 9.6 °C 1022.6 hPa WSW 5 km/h 12.9 km/h 86% 0 mm 0 W/m2
17:39 11.3 °C 9.7 °C 1022.6 hPa SW 6.8 km/h 17.7 km/h 86.8% 0 mm 0 W/m2
17:44 11.4 °C 9.8 °C 1022.6 hPa SW 10.6 km/h 17.7 km/h 87% 0 mm 0 W/m2
17:49 11.4 °C 9.8 °C 1022.2 hPa WSW 7.9 km/h 11.3 km/h 87% 0 mm 0 W/m2
17:54 11.4 °C 9.8 °C 1022.2 hPa WSW 7.2 km/h 12.9 km/h 87% 0 mm 0 W/m2
17:59 11.4 °C 9.8 °C 1022.2 hPa SW 10.9 km/h 24.1 km/h 87% 0 mm 0 W/m2
18:03 11.4 °C 9.8 °C 1022.2 hPa SW 11.6 km/h 16.1 km/h 87% 0 mm 0 W/m2
18:09 11.4 °C 9.9 °C 1021.9 hPa SW 7.7 km/h 14.5 km/h 87.8% 0 mm 0 W/m2
18:14 11.4 °C 10 °C 1021.9 hPa SW 14.5 km/h 24.1 km/h 88% 0 mm 0 W/m2
18:19 11.3 °C 9.9 °C 1021.9 hPa WSW 10.6 km/h 22.5 km/h 88% 0 mm 0 W/m2
18:24 11.4 °C 10 °C 1021.9 hPa WSW 7.2 km/h 16.1 km/h 88% 0 mm 0 W/m2
18:29 11.3 °C 9.9 °C 1021.9 hPa WSW 12.1 km/h 25.7 km/h 88% 0 mm 0 W/m2
18:34 11.4 °C 10 °C 1021.9 hPa West 6 km/h 16.1 km/h 88% 0 mm 0 W/m2
18:39 11.4 °C 10 °C 1021.9 hPa WSW 12.9 km/h 20.9 km/h 88% 0 mm 0 W/m2
18:44 11.4 °C 10 °C 1021.9 hPa WSW 8.2 km/h 17.7 km/h 88% 0 mm 0 W/m2
18:49 11.4 °C 10.1 °C 1021.9 hPa WSW 7.7 km/h 16.1 km/h 88.8% 0 mm 0 W/m2
18:54 11.4 °C 10.1 °C 1021.9 hPa WSW 10.3 km/h 19.3 km/h 89% 0 mm 0 W/m2
18:59 11.4 °C 10.1 °C 1021.6 hPa West 9.7 km/h 20.9 km/h 89% 0 mm 0 W/m2
19:04 11.4 °C 10.1 °C 1021.6 hPa West 7.4 km/h 17.7 km/h 89% 0 mm 0 W/m2
19:09 11.4 °C 10.1 °C 1021.2 hPa West 6 km/h 14.5 km/h 89% 0 mm 0 W/m2
19:14 11.4 °C 10.1 °C 1021.2 hPa West 6.8 km/h 12.9 km/h 89% 0 mm 0 W/m2
19:19 11.4 °C 10.2 °C 1021.6 hPa West 5.5 km/h 17.7 km/h 89.2% 0 mm 0 W/m2
19:24 11.4 °C 10.3 °C 1021.6 hPa West 7.2 km/h 17.7 km/h 90% 0 mm 0 W/m2
19:29 11.4 °C 10.3 °C 1021.6 hPa West 10.9 km/h 24.1 km/h 90% 0 mm 0 W/m2
19:34 11.5 °C 10.4 °C 1021.2 hPa West 8 km/h 19.3 km/h 90% 0 mm 0 W/m2
19:39 11.5 °C 10.6 °C 1021.2 hPa WSW 7.9 km/h 17.7 km/h 90.8% 0 mm 0 W/m2
19:44 11.5 °C 10.6 °C 1021.2 hPa West 11.3 km/h 20.9 km/h 91% 0 mm 0 W/m2
19:49 11.5 °C 10.6 °C 1021.2 hPa West 10 km/h 24.1 km/h 91% 0 mm 0 W/m2
19:54 11.6 °C 10.8 °C 1020.9 hPa West 10.9 km/h 25.7 km/h 92% 0 mm 0 W/m2
19:59 11.6 °C 10.8 °C 1020.9 hPa West 7.2 km/h 25.7 km/h 92% 0 mm 0 W/m2
20:04 11.6 °C 10.8 °C 1020.9 hPa West 11.3 km/h 20.9 km/h 92% 0 mm 0 W/m2
20:09 11.6 °C 10.8 °C 1020.9 hPa West 8.9 km/h 19.3 km/h 92% 0 mm 0 W/m2
20:14 11.6 °C 10.9 °C 1020.9 hPa West 14.6 km/h 29 km/h 92.6% 0 mm 0 W/m2
20:19 11.6 °C 10.9 °C 1020.9 hPa WNW 6.3 km/h 22.5 km/h 92.6% 0 mm 0 W/m2
20:24 11.7 °C 11.1 °C 1020.9 hPa West 12.6 km/h 22.5 km/h 93% 0.25 mm 0 W/m2
20:29 11.7 °C 11.1 °C 1020.9 hPa West 10 km/h 22.5 km/h 93% 0.25 mm 0 W/m2
20:34 11.7 °C 11.1 °C 1020.9 hPa West 11.9 km/h 22.5 km/h 93% 0.25 mm 0 W/m2
20:39 11.7 °C 11.1 °C 1020.9 hPa West 11.3 km/h 27.4 km/h 93% 0.25 mm 0 W/m2
20:44 11.7 °C 11.1 °C 1020.9 hPa West 15.8 km/h 32.2 km/h 93% 0.25 mm 0 W/m2
20:49 11.8 °C 11.3 °C 1020.5 hPa West 12.1 km/h 20.9 km/h 93.8% 0.25 mm 0 W/m2
20:54 11.8 °C 11.4 °C 1020.5 hPa West 7.7 km/h 24.1 km/h 94% 0.25 mm 0 W/m2
20:59 11.9 °C 11.5 °C 1020.9 hPa WNW 8.9 km/h 17.7 km/h 94% 0.25 mm 0 W/m2
21:04 12.1 °C 11.7 °C 1020.9 hPa WNW 13.7 km/h 20.9 km/h 94% 0.25 mm 0 W/m2
21:08 12.3 °C 11.8 °C 1020.9 hPa WNW 12.6 km/h 22.5 km/h 94% 0.25 mm 0 W/m2
21:14 12.3 °C 11.9 °C 1020.9 hPa WNW 9.2 km/h 20.9 km/h 94% 0.25 mm 0 W/m2
21:19 12.4 °C 12.1 °C 1020.9 hPa WNW 13.8 km/h 24.1 km/h 94% 0.25 mm 0 W/m2
21:24 12.5 °C 12.1 °C 1020.9 hPa WNW 11.4 km/h 24.1 km/h 94% 0.25 mm 0 W/m2
21:29 12.6 °C 12.2 °C 1020.9 hPa WNW 12.6 km/h 24.1 km/h 94% 0.25 mm 0 W/m2
21:34 12.6 °C 12.2 °C 1020.9 hPa WNW 10.9 km/h 19.3 km/h 94% 0.25 mm 0 W/m2
21:39 12.6 °C 12.2 °C 1020.9 hPa WNW 15.3 km/h 22.5 km/h 94% 0.25 mm 0 W/m2
21:44 12.6 °C 12.2 °C 1020.9 hPa West 16.1 km/h 27.4 km/h 94% 0.25 mm 0 W/m2
21:49 12.6 °C 12.2 °C 1020.9 hPa WNW 11.3 km/h 20.9 km/h 94% 0.25 mm 0 W/m2
21:53 12.6 °C 12.1 °C 1020.5 hPa WNW 12.1 km/h 19.3 km/h 94% 0.25 mm 0 W/m2
21:59 12.5 °C 12.1 °C 1020.9 hPa WNW 13.4 km/h 25.7 km/h 94% 0.25 mm 0 W/m2
22:04 12.4 °C 12.1 °C 1020.9 hPa WNW 12.6 km/h 17.7 km/h 94% 0.25 mm 0 W/m2
22:09 12.3 °C 11.9 °C 1020.9 hPa WNW 12.1 km/h 25.7 km/h 94% 0.25 mm 0 W/m2
22:14 12.3 °C 11.9 °C 1020.9 hPa WNW 11.1 km/h 27.4 km/h 94% 0.25 mm 0 W/m2
22:19 12.3 °C 11.9 °C 1020.9 hPa WNW 13.5 km/h 24.1 km/h 94% 0.25 mm 0 W/m2
22:24 12.3 °C 11.9 °C 1020.9 hPa WNW 10.6 km/h 20.9 km/h 93.8% 0.25 mm 0 W/m2
22:29 12.3 °C 11.8 °C 1020.9 hPa WNW 9.2 km/h 17.7 km/h 93.6% 0 mm 0 W/m2
22:34 12.3 °C 11.8 °C 1020.9 hPa WNW 14.5 km/h 22.5 km/h 93% 0 mm 0 W/m2
22:39 12.4 °C 11.8 °C 1020.9 hPa WNW 11.7 km/h 20.9 km/h 93% 0 mm 0 W/m2
22:44 12.4 °C 11.8 °C 1020.9 hPa West 12.6 km/h 20.9 km/h 93% 0 mm 0 W/m2
22:49 12.3 °C 11.7 °C 1020.9 hPa WNW 11.9 km/h 22.5 km/h 93% 0 mm 0 W/m2
22:54 12.3 °C 11.7 °C 1020.9 hPa WNW 13 km/h 22.5 km/h 93% 0 mm 0 W/m2
22:59 12.3 °C 11.7 °C 1021.2 hPa WNW 13.2 km/h 24.1 km/h 93% 0 mm 0 W/m2
23:04 12.3 °C 11.7 °C 1021.2 hPa NW 7.7 km/h 12.9 km/h 93% 0 mm 0 W/m2
23:09 12.3 °C 11.7 °C 1021.2 hPa WNW 8.2 km/h 14.5 km/h 93% 0 mm 0 W/m2
23:14 12.2 °C 11.5 °C 1021.2 hPa WNW 8.9 km/h 16.1 km/h 92.8% 0 mm 0 W/m2
23:19 12.1 °C 11.2 °C 1021.2 hPa WNW 10.6 km/h 16.1 km/h 92% 0 mm 0 W/m2
23:24 11.9 °C 11.2 °C 1021.2 hPa WNW 9.5 km/h 24.1 km/h 92% 0 mm 0 W/m2
23:29 11.8 °C 11.1 °C 1021.2 hPa WNW 6.4 km/h 17.7 km/h 92% 0 mm 0 W/m2
23:34 11.7 °C 10.8 °C 1021.2 hPa WNW 7.2 km/h 17.7 km/h 91.2% 0 mm 0 W/m2
23:39 11.6 °C 10.7 °C 1021.2 hPa WNW 8.2 km/h 17.7 km/h 91% 0 mm 0 W/m2
23:44 11.4 °C 10.6 °C 1021.2 hPa WNW 7.2 km/h 19.3 km/h 91% 0 mm 0 W/m2
23:49 11.4 °C 10.3 °C 1021.2 hPa NW 5.1 km/h 16.1 km/h 90% 0 mm 0 W/m2
23:53 11.5 °C 10.3 °C 1021.2 hPa NW 4.3 km/h 14.5 km/h 89.8% 0 mm 0 W/m2
23:59 11.5 °C 10.2 °C 1021.2 hPa NW 5.8 km/h 11.3 km/h 89% 0 mm 0 W/m2
Bath Spa Weather
Compliments of Weather Underground - 2 mb